Terminal Aerodrome Forecast
Issued by NWS Cleveland, OH

Home | Current Version | Previous Version | Text Only | Print | Product List | Glossary Off
Versions: 1 2 3 4 5 6 7 8 9 10 11 12 13 14 15

000
FTUS41 KCLE 171100
TAFTOL
TAF
KTOL 171138Z 1712/1812 27015G25KT P6SM OVC025
     FM172000 27012G22KT P6SM OVC035
     FM172300 27010KT P6SM OVC050=

USA.gov is the U.S. government's official web portal to all federal, state and local government web resources and services.